sensor_id;sensor_type;location;lat;lon;timestamp;temperature;humidity
67273;DHT22;54190;49.770;9.250;2023-06-22T00:00:55;20.20;99.90
67273;DHT22;54190;49.770;9.250;2023-06-22T00:03:22;20.40;99.90
67273;DHT22;54190;49.770;9.250;2023-06-22T00:05:48;20.50;99.90
67273;DHT22;54190;49.770;9.250;2023-06-22T00:08:14;20.60;99.90
67273;DHT22;54190;49.770;9.250;2023-06-22T00:10:40;20.60;99.90
67273;DHT22;54190;49.770;9.250;2023-06-22T00:13:08;20.60;99.90
67273;DHT22;54190;49.770;9.250;2023-06-22T00:15:34;20.60;99.90
67273;DHT22;54190;49.770;9.250;2023-06-22T00:18:00;20.70;99.90
67273;DHT22;54190;49.770;9.250;2023-06-22T00:20:26;20.70;99.90
67273;DHT22;54190;49.770;9.250;2023-06-22T00:22:58;20.70;99.90
67273;DHT22;54190;49.770;9.250;2023-06-22T00:25:24;20.70;99.90
67273;DHT22;54190;49.770;9.250;2023-06-22T00:27:50;20.60;99.90
67273;DHT22;54190;49.770;9.250;2023-06-22T00:30:16;20.60;99.90
67273;DHT22;54190;49.770;9.250;2023-06-22T00:32:43;20.60;99.90
67273;DHT22;54190;49.770;9.250;2023-06-22T00:35:09;20.60;99.90
67273;DHT22;54190;49.770;9.250;2023-06-22T00:37:36;20.70;99.90
67273;DHT22;54190;49.770;9.250;2023-06-22T00:40:02;20.70;99.90
67273;DHT22;54190;49.770;9.250;2023-06-22T00:42:30;20.70;99.90
67273;DHT22;54190;49.770;9.250;2023-06-22T00:44:56;20.70;99.90
67273;DHT22;54190;49.770;9.250;2023-06-22T00:47:23;20.60;99.90
67273;DHT22;54190;49.770;9.250;2023-06-22T00:49:49;20.50;99.90
67273;DHT22;54190;49.770;9.250;2023-06-22T00:52:20;20.50;99.90
67273;DHT22;54190;49.770;9.250;2023-06-22T00:54:48;20.50;99.90
67273;DHT22;54190;49.770;9.250;2023-06-22T00:57:17;20.50;99.90
67273;DHT22;54190;49.770;9.250;2023-06-22T00:59:47;20.50;99.90
67273;DHT22;54190;49.770;9.250;2023-06-22T01:02:13;20.50;99.90
67273;DHT22;54190;49.770;9.250;2023-06-22T01:04:39;20.60;99.90
67273;DHT22;54190;49.770;9.250;2023-06-22T01:07:21;20.60;99.90
67273;DHT22;54190;49.770;9.250;2023-06-22T01:16:02;20.60;99.90
67273;DHT22;54190;49.770;9.250;2023-06-22T01:18:30;20.60;99.90
67273;DHT22;54190;49.770;9.250;2023-06-22T01:21:00;20.70;99.90
67273;DHT22;54190;49.770;9.250;2023-06-22T01:26:10;20.60;99.90
67273;DHT22;54190;49.770;9.250;2023-06-22T01:31:11;20.50;99.90
67273;DHT22;54190;49.770;9.250;2023-06-22T01:33:41;20.40;99.90
67273;DHT22;54190;49.770;9.250;2023-06-22T01:36:08;20.40;99.90
67273;DHT22;54190;49.770;9.250;2023-06-22T01:38:35;20.40;99.90
67273;DHT22;54190;49.770;9.250;2023-06-22T01:41:02;20.40;99.90
67273;DHT22;54190;49.770;9.250;2023-06-22T01:43:29;20.40;99.90
67273;DHT22;54190;49.770;9.250;2023-06-22T01:45:56;20.40;99.90
67273;DHT22;54190;49.770;9.250;2023-06-22T01:48:23;20.40;99.90
67273;DHT22;54190;49.770;9.250;2023-06-22T01:50:49;20.40;99.90
67273;DHT22;54190;49.770;9.250;2023-06-22T01:53:16;20.40;99.90
67273;DHT22;54190;49.770;9.250;2023-06-22T01:55:41;20.40;99.90
67273;DHT22;54190;49.770;9.250;2023-06-22T01:58:07;20.30;99.90
67273;DHT22;54190;49.770;9.250;2023-06-22T02:00:36;20.30;99.90
67273;DHT22;54190;49.770;9.250;2023-06-22T02:03:10;20.30;99.90
67273;DHT22;54190;49.770;9.250;2023-06-22T02:05:43;20.20;99.90
67273;DHT22;54190;49.770;9.250;2023-06-22T02:08:32;19.90;99.90
67273;DHT22;54190;49.770;9.250;2023-06-22T02:11:01;19.80;99.90
67273;DHT22;54190;49.770;9.250;2023-06-22T02:13:27;20.00;99.90
67273;DHT22;54190;49.770;9.250;2023-06-22T02:15:53;20.10;99.90
67273;DHT22;54190;49.770;9.250;2023-06-22T02:18:19;20.20;99.90
67273;DHT22;54190;49.770;9.250;2023-06-22T02:20:46;20.40;99.90
67273;DHT22;54190;49.770;9.250;2023-06-22T02:23:11;20.30;99.90
67273;DHT22;54190;49.770;9.250;2023-06-22T02:25:37;20.30;99.90
67273;DHT22;54190;49.770;9.250;2023-06-22T02:28:04;20.30;99.90
67273;DHT22;54190;49.770;9.250;2023-06-22T02:30:30;20.30;99.90
67273;DHT22;54190;49.770;9.250;2023-06-22T02:32:56;20.20;99.90
67273;DHT22;54190;49.770;9.250;2023-06-22T02:35:26;20.20;99.90
67273;DHT22;54190;49.770;9.250;2023-06-22T02:37:52;20.20;99.90
67273;DHT22;54190;49.770;9.250;2023-06-22T02:40:17;20.30;99.90
67273;DHT22;54190;49.770;9.250;2023-06-22T02:42:43;20.30;99.90
67273;DHT22;54190;49.770;9.250;2023-06-22T02:45:09;20.30;99.90
67273;DHT22;54190;49.770;9.250;2023-06-22T02:47:35;20.30;99.90
67273;DHT22;54190;49.770;9.250;2023-06-22T02:50:01;20.20;99.90
67273;DHT22;54190;49.770;9.250;2023-06-22T02:52:29;20.20;99.90
67273;DHT22;54190;49.770;9.250;2023-06-22T02:54:55;20.20;99.90
67273;DHT22;54190;49.770;9.250;2023-06-22T02:57:21;20.20;99.90
67273;DHT22;54190;49.770;9.250;2023-06-22T02:59:47;20.20;99.90
67273;DHT22;54190;49.770;9.250;2023-06-22T03:02:13;20.20;99.90
67273;DHT22;54190;49.770;9.250;2023-06-22T03:04:39;20.20;99.90
67273;DHT22;54190;49.770;9.250;2023-06-22T03:07:05;20.20;99.90
67273;DHT22;54190;49.770;9.250;2023-06-22T03:09:32;20.20;99.90
67273;DHT22;54190;49.770;9.250;2023-06-22T03:11:58;20.20;99.90
67273;DHT22;54190;49.770;9.250;2023-06-22T03:14:27;20.30;99.90
67273;DHT22;54190;49.770;9.250;2023-06-22T03:16:53;20.30;99.90
67273;DHT22;54190;49.770;9.250;2023-06-22T03:19:19;20.30;99.90
67273;DHT22;54190;49.770;9.250;2023-06-22T03:21:47;20.30;99.90
67273;DHT22;54190;49.770;9.250;2023-06-22T03:24:12;20.30;99.90
67273;DHT22;54190;49.770;9.250;2023-06-22T03:26:38;20.20;99.90
67273;DHT22;54190;49.770;9.250;2023-06-22T03:29:03;20.10;99.90
67273;DHT22;54190;49.770;9.250;2023-06-22T03:31:30;20.10;99.90
67273;DHT22;54190;49.770;9.250;2023-06-22T03:33:56;20.10;99.90
67273;DHT22;54190;49.770;9.250;2023-06-22T03:36:23;20.20;99.90
67273;DHT22;54190;49.770;9.250;2023-06-22T03:38:49;20.10;99.90
67273;DHT22;54190;49.770;9.250;2023-06-22T03:41:16;20.10;99.90
67273;DHT22;54190;49.770;9.250;2023-06-22T03:43:42;19.90;99.90
67273;DHT22;54190;49.770;9.250;2023-06-22T03:46:08;19.80;99.90
67273;DHT22;54190;49.770;9.250;2023-06-22T03:48:34;19.80;99.90
67273;DHT22;54190;49.770;9.250;2023-06-22T03:51:00;19.80;99.90
67273;DHT22;54190;49.770;9.250;2023-06-22T03:53:26;19.90;99.90
67273;DHT22;54190;49.770;9.250;2023-06-22T03:55:52;19.90;99.90
67273;DHT22;54190;49.770;9.250;2023-06-22T03:58:19;19.80;99.90
67273;DHT22;54190;49.770;9.250;2023-06-22T04:00:50;19.70;99.90
67273;DHT22;54190;49.770;9.250;2023-06-22T04:03:16;19.60;99.90
67273;DHT22;54190;49.770;9.250;2023-06-22T04:05:44;19.50;99.90
67273;DHT22;54190;49.770;9.250;2023-06-22T04:08:10;19.60;99.90
67273;DHT22;54190;49.770;9.250;2023-06-22T04:10:36;19.60;99.90
67273;DHT22;54190;49.770;9.250;2023-06-22T04:13:01;19.60;99.90
67273;DHT22;54190;49.770;9.250;2023-06-22T04:15:27;19.70;99.90
67273;DHT22;54190;49.770;9.250;2023-06-22T04:17:55;19.70;99.90
67273;DHT22;54190;49.770;9.250;2023-06-22T04:20:21;19.80;99.90
67273;DHT22;54190;49.770;9.250;2023-06-22T04:22:46;19.80;99.90
67273;DHT22;54190;49.770;9.250;2023-06-22T04:25:13;19.80;99.90
67273;DHT22;54190;49.770;9.250;2023-06-22T04:27:39;19.80;99.90
67273;DHT22;54190;49.770;9.250;2023-06-22T04:30:08;19.90;99.90
67273;DHT22;54190;49.770;9.250;2023-06-22T04:32:35;19.90;99.90
67273;DHT22;54190;49.770;9.250;2023-06-22T04:35:05;19.90;99.90
67273;DHT22;54190;49.770;9.250;2023-06-22T04:37:32;19.90;99.90
67273;DHT22;54190;49.770;9.250;2023-06-22T04:39:57;19.90;99.90
67273;DHT22;54190;49.770;9.250;2023-06-22T04:42:25;19.90;99.90
67273;DHT22;54190;49.770;9.250;2023-06-22T04:44:51;19.90;99.90
67273;DHT22;54190;49.770;9.250;2023-06-22T04:47:17;19.90;99.90
67273;DHT22;54190;49.770;9.250;2023-06-22T04:49:42;20.00;99.90
67273;DHT22;54190;49.770;9.250;2023-06-22T04:52:10;19.90;99.90
67273;DHT22;54190;49.770;9.250;2023-06-22T04:54:37;20.00;99.90
67273;DHT22;54190;49.770;9.250;2023-06-22T04:57:07;20.00;99.90
67273;DHT22;54190;49.770;9.250;2023-06-22T04:59:36;20.00;99.90
67273;DHT22;54190;49.770;9.250;2023-06-22T05:02:05;20.00;99.90
67273;DHT22;54190;49.770;9.250;2023-06-22T05:04:31;20.00;99.90
67273;DHT22;54190;49.770;9.250;2023-06-22T05:06:59;20.00;99.90
67273;DHT22;54190;49.770;9.250;2023-06-22T05:09:25;20.00;99.90
67273;DHT22;54190;49.770;9.250;2023-06-22T05:11:51;20.00;99.90
67273;DHT22;54190;49.770;9.250;2023-06-22T05:14:17;20.00;99.90
67273;DHT22;54190;49.770;9.250;2023-06-22T05:16:43;20.00;99.90
67273;DHT22;54190;49.770;9.250;2023-06-22T05:19:09;20.10;99.90
67273;DHT22;54190;49.770;9.250;2023-06-22T05:21:35;20.10;99.90
67273;DHT22;54190;49.770;9.250;2023-06-22T05:24:01;20.00;99.90
67273;DHT22;54190;49.770;9.250;2023-06-22T05:26:29;20.00;99.90
67273;DHT22;54190;49.770;9.250;2023-06-22T05:28:56;20.10;99.90
67273;DHT22;54190;49.770;9.250;2023-06-22T05:31:22;20.10;99.90
67273;DHT22;54190;49.770;9.250;2023-06-22T05:33:48;20.10;99.90
67273;DHT22;54190;49.770;9.250;2023-06-22T05:36:15;20.20;99.90
67273;DHT22;54190;49.770;9.250;2023-06-22T05:38:41;20.30;99.90
67273;DHT22;54190;49.770;9.250;2023-06-22T05:41:07;20.40;99.90
67273;DHT22;54190;49.770;9.250;2023-06-22T05:43:33;20.40;99.90
67273;DHT22;54190;49.770;9.250;2023-06-22T05:46:01;20.60;99.90
67273;DHT22;54190;49.770;9.250;2023-06-22T05:48:27;20.60;99.90
67273;DHT22;54190;49.770;9.250;2023-06-22T05:50:53;20.70;99.90
67273;DHT22;54190;49.770;9.250;2023-06-22T05:53:19;20.70;99.90
67273;DHT22;54190;49.770;9.250;2023-06-22T05:55:45;20.80;99.90
67273;DHT22;54190;49.770;9.250;2023-06-22T05:58:11;20.90;99.90
67273;DHT22;54190;49.770;9.250;2023-06-22T06:00:36;21.00;99.90
67273;DHT22;54190;49.770;9.250;2023-06-22T06:03:02;21.10;99.90
67273;DHT22;54190;49.770;9.250;2023-06-22T06:05:30;21.10;99.90
67273;DHT22;54190;49.770;9.250;2023-06-22T06:07:55;21.20;99.90
67273;DHT22;54190;49.770;9.250;2023-06-22T06:10:21;21.20;99.90
67273;DHT22;54190;49.770;9.250;2023-06-22T06:12:47;21.20;99.90
67273;DHT22;54190;49.770;9.250;2023-06-22T06:15:12;21.30;99.90
67273;DHT22;54190;49.770;9.250;2023-06-22T06:17:54;21.40;99.90
67273;DHT22;54190;49.770;9.250;2023-06-22T06:20:22;21.50;99.90
67273;DHT22;54190;49.770;9.250;2023-06-22T06:22:49;21.50;99.90
67273;DHT22;54190;49.770;9.250;2023-06-22T06:25:15;21.50;99.90
67273;DHT22;54190;49.770;9.250;2023-06-22T06:27:50;21.60;99.90
67273;DHT22;54190;49.770;9.250;2023-06-22T06:30:16;21.70;99.90
67273;DHT22;54190;49.770;9.250;2023-06-22T06:32:43;21.80;99.90
67273;DHT22;54190;49.770;9.250;2023-06-22T06:35:12;21.80;99.90
67273;DHT22;54190;49.770;9.250;2023-06-22T06:37:42;21.90;99.90
67273;DHT22;54190;49.770;9.250;2023-06-22T06:40:10;21.90;99.90
67273;DHT22;54190;49.770;9.250;2023-06-22T06:42:41;22.00;99.90
67273;DHT22;54190;49.770;9.250;2023-06-22T06:45:16;22.00;99.90
67273;DHT22;54190;49.770;9.250;2023-06-22T06:47:42;22.00;99.90
67273;DHT22;54190;49.770;9.250;2023-06-22T06:50:08;22.10;99.90
67273;DHT22;54190;49.770;9.250;2023-06-22T06:52:35;22.20;99.90
67273;DHT22;54190;49.770;9.250;2023-06-22T06:55:01;22.30;99.90
67273;DHT22;54190;49.770;9.250;2023-06-22T06:57:28;22.40;99.90
67273;DHT22;54190;49.770;9.250;2023-06-22T06:59:55;22.40;99.90
67273;DHT22;54190;49.770;9.250;2023-06-22T07:02:22;22.50;99.90
67273;DHT22;54190;49.770;9.250;2023-06-22T07:04:47;22.50;99.90
67273;DHT22;54190;49.770;9.250;2023-06-22T07:07:14;22.60;99.90
67273;DHT22;54190;49.770;9.250;2023-06-22T07:09:40;22.70;99.90
67273;DHT22;54190;49.770;9.250;2023-06-22T07:12:06;22.70;99.90
67273;DHT22;54190;49.770;9.250;2023-06-22T07:14:31;22.80;99.90
67273;DHT22;54190;49.770;9.250;2023-06-22T07:16:58;22.90;99.90
67273;DHT22;54190;49.770;9.250;2023-06-22T07:19:29;23.10;99.90
67273;DHT22;54190;49.770;9.250;2023-06-22T07:21:57;23.20;99.90
67273;DHT22;54190;49.770;9.250;2023-06-22T07:24:23;23.30;99.90
67273;DHT22;54190;49.770;9.250;2023-06-22T07:26:50;23.40;99.90
67273;DHT22;54190;49.770;9.250;2023-06-22T07:29:19;23.50;99.90
67273;DHT22;54190;49.770;9.250;2023-06-22T07:31:47;23.60;99.90
67273;DHT22;54190;49.770;9.250;2023-06-22T07:34:13;23.70;99.90
67273;DHT22;54190;49.770;9.250;2023-06-22T07:36:39;23.80;99.90
67273;DHT22;54190;49.770;9.250;2023-06-22T07:39:05;24.00;99.90
67273;DHT22;54190;49.770;9.250;2023-06-22T07:41:31;24.10;99.90
67273;DHT22;54190;49.770;9.250;2023-06-22T07:43:56;24.20;99.90
67273;DHT22;54190;49.770;9.250;2023-06-22T07:46:23;24.30;99.90
67273;DHT22;54190;49.770;9.250;2023-06-22T07:48:48;24.30;99.90
67273;DHT22;54190;49.770;9.250;2023-06-22T07:51:14;24.40;99.90
67273;DHT22;54190;49.770;9.250;2023-06-22T07:53:41;24.50;99.90
67273;DHT22;54190;49.770;9.250;2023-06-22T07:56:10;24.50;99.90
67273;DHT22;54190;49.770;9.250;2023-06-22T07:58:36;24.60;99.90
67273;DHT22;54190;49.770;9.250;2023-06-22T08:01:02;24.70;99.90
67273;DHT22;54190;49.770;9.250;2023-06-22T08:03:28;24.80;99.90
67273;DHT22;54190;49.770;9.250;2023-06-22T08:05:54;24.80;99.90
67273;DHT22;54190;49.770;9.250;2023-06-22T08:08:20;24.90;99.90
67273;DHT22;54190;49.770;9.250;2023-06-22T08:10:45;25.00;99.90
67273;DHT22;54190;49.770;9.250;2023-06-22T08:13:11;25.10;99.90
67273;DHT22;54190;49.770;9.250;2023-06-22T08:15:36;25.20;99.90
67273;DHT22;54190;49.770;9.250;2023-06-22T08:18:02;25.20;99.90
67273;DHT22;54190;49.770;9.250;2023-06-22T08:20:28;25.30;99.90
67273;DHT22;54190;49.770;9.250;2023-06-22T08:22:55;25.30;99.90
67273;DHT22;54190;49.770;9.250;2023-06-22T08:25:21;25.40;99.90
67273;DHT22;54190;49.770;9.250;2023-06-22T08:27:47;25.40;99.90
67273;DHT22;54190;49.770;9.250;2023-06-22T08:30:14;25.50;99.90
67273;DHT22;54190;49.770;9.250;2023-06-22T08:32:40;25.60;99.90
67273;DHT22;54190;49.770;9.250;2023-06-22T08:35:06;25.70;99.90
67273;DHT22;54190;49.770;9.250;2023-06-22T08:37:35;25.80;99.90
67273;DHT22;54190;49.770;9.250;2023-06-22T08:40:03;25.90;99.90
67273;DHT22;54190;49.770;9.250;2023-06-22T08:42:36;26.00;99.90
67273;DHT22;54190;49.770;9.250;2023-06-22T08:45:02;26.10;99.90
67273;DHT22;54190;49.770;9.250;2023-06-22T08:47:28;26.10;99.90
67273;DHT22;54190;49.770;9.250;2023-06-22T08:49:54;26.20;99.90
67273;DHT22;54190;49.770;9.250;2023-06-22T08:52:19;26.30;99.90
67273;DHT22;54190;49.770;9.250;2023-06-22T08:54:46;26.30;99.90
67273;DHT22;54190;49.770;9.250;2023-06-22T08:57:12;26.30;99.90
67273;DHT22;54190;49.770;9.250;2023-06-22T08:59:37;26.40;99.90
67273;DHT22;54190;49.770;9.250;2023-06-22T09:02:03;26.50;99.90
67273;DHT22;54190;49.770;9.250;2023-06-22T09:04:29;26.60;99.90
67273;DHT22;54190;49.770;9.250;2023-06-22T09:06:54;26.60;99.90
67273;DHT22;54190;49.770;9.250;2023-06-22T09:09:21;26.70;99.90
67273;DHT22;54190;49.770;9.250;2023-06-22T09:11:47;26.80;99.90
67273;DHT22;54190;49.770;9.250;2023-06-22T09:14:13;26.90;99.90
67273;DHT22;54190;49.770;9.250;2023-06-22T09:16:38;27.00;99.90
67273;DHT22;54190;49.770;9.250;2023-06-22T09:19:04;27.20;99.90
67273;DHT22;54190;49.770;9.250;2023-06-22T09:21:29;27.30;99.90
67273;DHT22;54190;49.770;9.250;2023-06-22T09:23:55;27.30;99.90
67273;DHT22;54190;49.770;9.250;2023-06-22T09:26:22;27.40;99.90
67273;DHT22;54190;49.770;9.250;2023-06-22T09:28:49;27.40;99.90
67273;DHT22;54190;49.770;9.250;2023-06-22T09:31:15;27.50;99.90
67273;DHT22;54190;49.770;9.250;2023-06-22T09:33:42;27.60;99.90
67273;DHT22;54190;49.770;9.250;2023-06-22T09:36:08;27.70;99.90
67273;DHT22;54190;49.770;9.250;2023-06-22T09:38:37;27.80;99.90
67273;DHT22;54190;49.770;9.250;2023-06-22T09:41:04;27.90;99.90
67273;DHT22;54190;49.770;9.250;2023-06-22T09:43:32;28.00;99.90
67273;DHT22;54190;49.770;9.250;2023-06-22T09:45:58;28.10;99.90
67273;DHT22;54190;49.770;9.250;2023-06-22T09:48:23;28.30;99.90
67273;DHT22;54190;49.770;9.250;2023-06-22T09:50:49;28.30;99.90
67273;DHT22;54190;49.770;9.250;2023-06-22T09:53:14;28.30;99.90
67273;DHT22;54190;49.770;9.250;2023-06-22T09:55:40;28.10;99.90
67273;DHT22;54190;49.770;9.250;2023-06-22T09:58:06;28.20;99.90
67273;DHT22;54190;49.770;9.250;2023-06-22T10:00:31;28.20;99.90
67273;DHT22;54190;49.770;9.250;2023-06-22T10:02:57;28.40;99.90
67273;DHT22;54190;49.770;9.250;2023-06-22T10:05:23;28.60;99.90
67273;DHT22;54190;49.770;9.250;2023-06-22T10:07:50;28.70;99.90
67273;DHT22;54190;49.770;9.250;2023-06-22T10:10:15;28.80;99.90
67273;DHT22;54190;49.770;9.250;2023-06-22T10:12:43;28.90;99.90
67273;DHT22;54190;49.770;9.250;2023-06-22T10:15:10;28.90;99.90
67273;DHT22;54190;49.770;9.250;2023-06-22T10:17:36;29.00;99.90
67273;DHT22;54190;49.770;9.250;2023-06-22T10:20:01;29.10;99.90
67273;DHT22;54190;49.770;9.250;2023-06-22T10:22:37;29.20;99.90
67273;DHT22;54190;49.770;9.250;2023-06-22T10:25:03;29.30;99.90
67273;DHT22;54190;49.770;9.250;2023-06-22T10:27:29;29.40;99.40
67273;DHT22;54190;49.770;9.250;2023-06-22T10:29:54;29.50;98.70
67273;DHT22;54190;49.770;9.250;2023-06-22T10:32:20;29.60;99.10
67273;DHT22;54190;49.770;9.250;2023-06-22T10:34:45;29.70;98.50
67273;DHT22;54190;49.770;9.250;2023-06-22T10:37:11;29.70;98.30
67273;DHT22;54190;49.770;9.250;2023-06-22T10:39:37;29.70;98.90
67273;DHT22;54190;49.770;9.250;2023-06-22T10:42:02;29.70;98.90
67273;DHT22;54190;49.770;9.250;2023-06-22T10:44:28;29.70;98.60
67273;DHT22;54190;49.770;9.250;2023-06-22T10:46:53;29.80;98.80
67273;DHT22;54190;49.770;9.250;2023-06-22T10:49:19;29.90;97.40
67273;DHT22;54190;49.770;9.250;2023-06-22T10:51:45;29.80;97.40
67273;DHT22;54190;49.770;9.250;2023-06-22T10:54:11;29.90;98.40
67273;DHT22;54190;49.770;9.250;2023-06-22T10:56:39;29.90;96.00
67273;DHT22;54190;49.770;9.250;2023-06-22T10:59:05;29.70;97.30
67273;DHT22;54190;49.770;9.250;2023-06-22T11:01:31;29.60;97.40
67273;DHT22;54190;49.770;9.250;2023-06-22T11:03:58;29.60;96.90
67273;DHT22;54190;49.770;9.250;2023-06-22T11:06:24;29.50;97.40
67273;DHT22;54190;49.770;9.250;2023-06-22T11:08:49;29.40;98.10
67273;DHT22;54190;49.770;9.250;2023-06-22T11:11:15;29.50;97.40
67273;DHT22;54190;49.770;9.250;2023-06-22T11:13:43;29.60;97.40
67273;DHT22;54190;49.770;9.250;2023-06-22T11:16:10;29.70;97.10
67273;DHT22;54190;49.770;9.250;2023-06-22T11:18:36;29.80;97.40
67273;DHT22;54190;49.770;9.250;2023-06-22T11:21:01;29.80;96.60
67273;DHT22;54190;49.770;9.250;2023-06-22T11:23:27;29.80;97.10
67273;DHT22;54190;49.770;9.250;2023-06-22T11:25:54;29.90;97.10
67273;DHT22;54190;49.770;9.250;2023-06-22T11:28:19;30.10;98.60
67273;DHT22;54190;49.770;9.250;2023-06-22T11:30:45;30.20;98.10
67273;DHT22;54190;49.770;9.250;2023-06-22T11:33:10;30.20;97.60
67273;DHT22;54190;49.770;9.250;2023-06-22T11:35:36;30.30;97.00
67273;DHT22;54190;49.770;9.250;2023-06-22T11:38:02;30.30;95.60
67273;DHT22;54190;49.770;9.250;2023-06-22T11:40:29;30.20;96.40
67273;DHT22;54190;49.770;9.250;2023-06-22T11:42:55;30.20;96.60
67273;DHT22;54190;49.770;9.250;2023-06-22T11:45:20;30.30;95.70
67273;DHT22;54190;49.770;9.250;2023-06-22T11:47:46;30.50;95.80
67273;DHT22;54190;49.770;9.250;2023-06-22T11:50:12;30.50;95.40
67273;DHT22;54190;49.770;9.250;2023-06-22T11:52:38;30.50;95.20
67273;DHT22;54190;49.770;9.250;2023-06-22T11:55:04;30.50;95.40
67273;DHT22;54190;49.770;9.250;2023-06-22T11:57:33;30.60;96.00
67273;DHT22;54190;49.770;9.250;2023-06-22T11:59:59;30.80;94.50
67273;DHT22;54190;49.770;9.250;2023-06-22T12:02:25;30.90;95.30
67273;DHT22;54190;49.770;9.250;2023-06-22T12:04:51;30.90;94.40
67273;DHT22;54190;49.770;9.250;2023-06-22T12:07:18;31.10;95.30
67273;DHT22;54190;49.770;9.250;2023-06-22T12:09:44;31.30;96.00
67273;DHT22;54190;49.770;9.250;2023-06-22T12:12:10;31.50;95.70
67273;DHT22;54190;49.770;9.250;2023-06-22T12:14:36;31.60;93.40
67273;DHT22;54190;49.770;9.250;2023-06-22T12:17:02;31.60;93.30
67273;DHT22;54190;49.770;9.250;2023-06-22T12:19:27;31.60;93.40
67273;DHT22;54190;49.770;9.250;2023-06-22T12:21:53;31.50;93.40
67273;DHT22;54190;49.770;9.250;2023-06-22T12:24:19;31.30;92.70
67273;DHT22;54190;49.770;9.250;2023-06-22T12:26:44;31.20;93.50
67273;DHT22;54190;49.770;9.250;2023-06-22T12:29:10;31.20;94.10
67273;DHT22;54190;49.770;9.250;2023-06-22T12:31:36;31.20;93.50
67273;DHT22;54190;49.770;9.250;2023-06-22T12:34:04;31.20;94.00
67273;DHT22;54190;49.770;9.250;2023-06-22T12:36:29;31.20;93.10
67273;DHT22;54190;49.770;9.250;2023-06-22T12:38:55;31.20;93.50
67273;DHT22;54190;49.770;9.250;2023-06-22T12:41:21;31.10;93.60
67273;DHT22;54190;49.770;9.250;2023-06-22T12:43:46;31.10;94.60
67273;DHT22;54190;49.770;9.250;2023-06-22T12:46:12;31.20;93.60
67273;DHT22;54190;49.770;9.250;2023-06-22T12:48:38;31.00;92.70
67273;DHT22;54190;49.770;9.250;2023-06-22T12:51:09;30.90;93.80
67273;DHT22;54190;49.770;9.250;2023-06-22T12:53:35;30.80;93.60
67273;DHT22;54190;49.770;9.250;2023-06-22T12:56:01;30.70;94.20
67273;DHT22;54190;49.770;9.250;2023-06-22T12:58:26;30.50;93.70
67273;DHT22;54190;49.770;9.250;2023-06-22T13:00:52;30.50;94.30
67273;DHT22;54190;49.770;9.250;2023-06-22T13:03:18;30.50;94.70
67273;DHT22;54190;49.770;9.250;2023-06-22T13:05:44;30.50;95.00
67273;DHT22;54190;49.770;9.250;2023-06-22T13:08:10;30.70;95.10
67273;DHT22;54190;49.770;9.250;2023-06-22T13:10:36;30.80;95.10
67273;DHT22;54190;49.770;9.250;2023-06-22T13:13:02;30.80;93.60
67273;DHT22;54190;49.770;9.250;2023-06-22T13:15:28;30.80;93.40
67273;DHT22;54190;49.770;9.250;2023-06-22T13:17:54;30.70;93.80
67273;DHT22;54190;49.770;9.250;2023-06-22T13:20:20;30.70;94.70
67273;DHT22;54190;49.770;9.250;2023-06-22T13:22:46;30.60;94.30
67273;DHT22;54190;49.770;9.250;2023-06-22T13:25:11;30.60;94.90
67273;DHT22;54190;49.770;9.250;2023-06-22T13:27:41;30.60;93.40
67273;DHT22;54190;49.770;9.250;2023-06-22T13:30:08;30.50;94.30
67273;DHT22;54190;49.770;9.250;2023-06-22T13:32:34;30.50;94.20
67273;DHT22;54190;49.770;9.250;2023-06-22T13:35:00;30.50;94.50
67273;DHT22;54190;49.770;9.250;2023-06-22T13:37:26;30.60;94.50
67273;DHT22;54190;49.770;9.250;2023-06-22T13:39:51;30.70;94.30
67273;DHT22;54190;49.770;9.250;2023-06-22T13:42:17;30.90;94.40
67273;DHT22;54190;49.770;9.250;2023-06-22T13:44:43;31.10;94.70
67273;DHT22;54190;49.770;9.250;2023-06-22T13:47:08;31.30;94.90
67273;DHT22;54190;49.770;9.250;2023-06-22T13:49:34;31.40;93.60
67273;DHT22;54190;49.770;9.250;2023-06-22T13:52:00;31.40;92.70
67273;DHT22;54190;49.770;9.250;2023-06-22T13:54:26;31.40;93.80
67273;DHT22;54190;49.770;9.250;2023-06-22T13:56:51;31.40;93.50
67273;DHT22;54190;49.770;9.250;2023-06-22T13:59:17;31.30;92.30
67273;DHT22;54190;49.770;9.250;2023-06-22T14:01:43;31.20;92.60
67273;DHT22;54190;49.770;9.250;2023-06-22T14:04:09;31.20;93.60
67273;DHT22;54190;49.770;9.250;2023-06-22T14:06:35;31.10;93.90
67273;DHT22;54190;49.770;9.250;2023-06-22T14:09:01;31.20;95.00
67273;DHT22;54190;49.770;9.250;2023-06-22T14:11:26;31.20;95.00
67273;DHT22;54190;49.770;9.250;2023-06-22T14:13:52;31.40;94.90
67273;DHT22;54190;49.770;9.250;2023-06-22T14:16:18;31.40;94.00
67273;DHT22;54190;49.770;9.250;2023-06-22T14:18:45;31.40;92.70
67273;DHT22;54190;49.770;9.250;2023-06-22T14:21:10;31.40;93.40
67273;DHT22;54190;49.770;9.250;2023-06-22T14:23:36;31.40;94.50
67273;DHT22;54190;49.770;9.250;2023-06-22T14:26:03;31.40;94.00
67273;DHT22;54190;49.770;9.250;2023-06-22T14:28:29;31.30;94.10
67273;DHT22;54190;49.770;9.250;2023-06-22T14:30:54;31.40;94.90
67273;DHT22;54190;49.770;9.250;2023-06-22T14:33:21;31.50;94.70
67273;DHT22;54190;49.770;9.250;2023-06-22T14:35:47;31.70;94.20
67273;DHT22;54190;49.770;9.250;2023-06-22T14:38:13;31.90;93.50
67273;DHT22;54190;49.770;9.250;2023-06-22T14:40:38;32.10;93.40
67273;DHT22;54190;49.770;9.250;2023-06-22T14:43:04;32.10;92.80
67273;DHT22;54190;49.770;9.250;2023-06-22T14:45:29;32.10;92.70
67273;DHT22;54190;49.770;9.250;2023-06-22T14:47:55;32.00;93.30
67273;DHT22;54190;49.770;9.250;2023-06-22T14:50:21;31.90;93.20
67273;DHT22;54190;49.770;9.250;2023-06-22T14:52:46;31.70;93.30
67273;DHT22;54190;49.770;9.250;2023-06-22T14:55:12;31.70;95.00
67273;DHT22;54190;49.770;9.250;2023-06-22T14:57:38;31.60;95.60
67273;DHT22;54190;49.770;9.250;2023-06-22T15:00:04;31.60;95.70
67273;DHT22;54190;49.770;9.250;2023-06-22T15:02:31;31.50;95.10
67273;DHT22;54190;49.770;9.250;2023-06-22T15:04:57;31.50;95.80
67273;DHT22;54190;49.770;9.250;2023-06-22T15:07:23;31.40;95.60
67273;DHT22;54190;49.770;9.250;2023-06-22T15:09:48;31.40;96.20
67273;DHT22;54190;49.770;9.250;2023-06-22T15:12:14;31.40;96.70
67273;DHT22;54190;49.770;9.250;2023-06-22T15:14:43;31.30;95.90
67273;DHT22;54190;49.770;9.250;2023-06-22T15:17:09;31.30;96.80
67273;DHT22;54190;49.770;9.250;2023-06-22T15:19:37;31.30;97.20
67273;DHT22;54190;49.770;9.250;2023-06-22T15:22:07;31.20;97.80
67273;DHT22;54190;49.770;9.250;2023-06-22T15:24:33;31.20;98.50
67273;DHT22;54190;49.770;9.250;2023-06-22T15:26:59;31.10;97.90
67273;DHT22;54190;49.770;9.250;2023-06-22T15:29:26;31.10;93.50
67273;DHT22;54190;49.770;9.250;2023-06-22T15:31:52;30.90;93.60
67273;DHT22;54190;49.770;9.250;2023-06-22T15:34:18;30.90;95.00
67273;DHT22;54190;49.770;9.250;2023-06-22T15:36:44;30.80;95.70